createdAt,value
2019-06-26T00:00:19.996Z,23.63
2019-06-26T00:01:19.997Z,23.66
2019-06-26T00:02:20.002Z,23.72
2019-06-26T00:03:20.005Z,23.61
2019-06-26T00:04:20.011Z,23.65
2019-06-26T00:05:20.017Z,23.63
2019-06-26T00:06:20.017Z,23.65
2019-06-26T00:07:20.023Z,23.63
2019-06-26T00:08:20.027Z,23.68
2019-06-26T00:09:20.037Z,23.61
2019-06-26T00:10:20.036Z,23.66
2019-06-26T00:11:20.039Z,23.55
2019-06-26T00:12:20.042Z,23.57
2019-06-26T00:13:26.292Z,23.57
2019-06-26T00:14:20.055Z,23.48
2019-06-26T00:15:20.064Z,23.46
2019-06-26T00:16:20.065Z,23.46
2019-06-26T00:17:20.072Z,23.40
2019-06-26T00:18:20.066Z,23.38
2019-06-26T00:19:20.075Z,23.47
2019-06-26T00:20:20.079Z,23.39
2019-06-26T00:21:22.037Z,23.31
2019-06-26T00:22:20.144Z,23.32
2019-06-26T00:23:20.093Z,23.23
2019-06-26T00:24:20.097Z,23.25
2019-06-26T00:25:20.110Z,23.20
2019-06-26T00:26:20.112Z,23.23
2019-06-26T00:27:20.115Z,23.19
2019-06-26T00:28:20.114Z,23.16
2019-06-26T00:29:20.123Z,23.20
2019-06-26T00:30:20.128Z,23.13
2019-06-26T00:31:20.126Z,23.00
2019-06-26T00:32:20.126Z,23.05
2019-06-26T00:33:20.132Z,23.00
2019-06-26T00:34:20.146Z,22.97
2019-06-26T00:35:20.142Z,22.88
2019-06-26T00:36:20.155Z,22.86
2019-06-26T00:37:20.151Z,22.92
2019-06-26T00:38:20.155Z,22.76
2019-06-26T00:39:20.163Z,22.86
2019-06-26T00:40:20.166Z,22.79
2019-06-26T00:41:20.200Z,22.75
2019-06-26T00:42:20.172Z,22.77
2019-06-26T00:43:20.174Z,22.77
2019-06-26T00:44:20.182Z,22.76
2019-06-26T00:45:20.186Z,22.80
2019-06-26T00:46:20.186Z,22.82
2019-06-26T00:47:20.193Z,22.82
2019-06-26T00:48:20.192Z,22.90
2019-06-26T00:49:20.205Z,22.77
2019-06-26T00:50:20.382Z,22.79
2019-06-26T00:51:20.211Z,22.83
2019-06-26T00:52:20.212Z,22.79
2019-06-26T00:53:20.217Z,22.85
2019-06-26T00:54:20.219Z,22.77
2019-06-26T00:55:20.238Z,22.75
2019-06-26T00:56:20.231Z,22.73
2019-06-26T00:57:20.230Z,22.75
2019-06-26T00:58:20.234Z,22.73
2019-06-26T00:59:20.253Z,22.65
2019-06-26T01:00:20.241Z,22.62
2019-06-26T01:01:20.252Z,22.70
2019-06-26T01:02:20.252Z,22.61
2019-06-26T01:03:20.255Z,22.60
2019-06-26T01:04:20.257Z,22.67
2019-06-26T01:05:20.264Z,22.67
2019-06-26T01:06:20.266Z,22.62
2019-06-26T01:07:20.278Z,22.64
2019-06-26T01:08:20.292Z,22.67
2019-06-26T01:09:20.279Z,22.67
2019-06-26T01:10:20.283Z,22.65
2019-06-26T01:11:21.680Z,22.70
2019-06-26T01:12:20.290Z,22.67
2019-06-26T01:13:20.294Z,22.64
2019-06-26T01:14:20.302Z,22.64
2019-06-26T01:15:20.330Z,22.65
2019-06-26T01:16:20.305Z,22.62
2019-06-26T01:17:20.305Z,22.62
2019-06-26T01:18:20.321Z,22.60
2019-06-26T01:19:20.316Z,22.57
2019-06-26T01:20:20.319Z,22.60
2019-06-26T01:21:20.325Z,22.60
2019-06-26T01:22:20.328Z,22.62
2019-06-26T01:23:20.333Z,22.55
2019-06-26T01:24:20.337Z,22.58
2019-06-26T01:25:20.349Z,22.57
2019-06-26T01:26:20.343Z,22.52
2019-06-26T01:27:20.349Z,22.55
2019-06-26T01:28:20.353Z,22.52
2019-06-26T01:29:20.356Z,22.57
2019-06-26T01:30:20.360Z,22.61
2019-06-26T01:31:20.364Z,22.57
2019-06-26T01:32:20.364Z,22.52
2019-06-26T01:33:20.369Z,22.49
2019-06-26T01:34:20.371Z,22.43
2019-06-26T01:35:20.375Z,22.43
2019-06-26T01:36:20.386Z,22.45
2019-06-26T01:37:20.388Z,22.55
2019-06-26T01:38:20.393Z,22.51
2019-06-26T01:39:20.392Z,22.54
2019-06-26T01:40:20.397Z,22.47
2019-06-26T01:41:20.409Z,22.46
2019-06-26T01:42:20.406Z,22.43
2019-06-26T01:43:20.407Z,22.47
2019-06-26T01:44:20.408Z,22.43
2019-06-26T01:45:20.416Z,22.42
2019-06-26T01:46:20.419Z,22.42
2019-06-26T01:47:20.421Z,22.49
2019-06-26T01:48:20.432Z,22.51
2019-06-26T01:49:20.427Z,22.46
2019-06-26T01:50:20.435Z,22.43
2019-06-26T01:51:20.437Z,22.45
2019-06-26T01:52:20.442Z,22.49
2019-06-26T01:53:20.449Z,22.51
2019-06-26T01:54:20.451Z,22.47
2019-06-26T01:55:20.452Z,22.47
2019-06-26T01:56:20.458Z,22.49
2019-06-26T01:57:20.462Z,22.51
2019-06-26T01:58:20.464Z,22.52
2019-06-26T01:59:20.475Z,22.49
2019-06-26T02:00:20.472Z,22.55
2019-06-26T02:01:20.473Z,22.64
2019-06-26T02:02:20.479Z,22.60
2019-06-26T02:03:20.486Z,22.57
2019-06-26T02:04:20.481Z,22.61
2019-06-26T02:05:20.485Z,22.65
2019-06-26T02:06:20.496Z,22.67
2019-06-26T02:07:20.500Z,22.62
2019-06-26T02:08:20.513Z,22.62
2019-06-26T02:09:20.520Z,22.62
2019-06-26T02:10:20.507Z,22.58
2019-06-26T02:11:20.515Z,22.57
2019-06-26T02:12:20.513Z,22.52
2019-06-26T02:13:20.517Z,22.54
2019-06-26T02:14:30.368Z,22.46
2019-06-26T02:15:20.525Z,22.49
2019-06-26T02:16:20.529Z,22.40
2019-06-26T02:17:20.534Z,22.40
2019-06-26T02:18:20.535Z,22.42
2019-06-26T02:19:20.539Z,22.30
2019-06-26T02:20:20.546Z,22.24
2019-06-26T02:21:20.543Z,22.31
2019-06-26T02:22:20.548Z,22.20
2019-06-26T02:23:20.549Z,22.24
2019-06-26T02:24:20.557Z,22.22
2019-06-26T02:25:20.559Z,22.18
2019-06-26T02:26:20.566Z,22.14
2019-06-26T02:27:20.567Z,22.09
2019-06-26T02:28:20.566Z,22.12
2019-06-26T02:29:20.572Z,22.06
2019-06-26T02:30:20.586Z,22.02
2019-06-26T02:31:20.585Z,21.90
2019-06-26T02:32:20.608Z,21.98
2019-06-26T02:33:20.587Z,21.96
2019-06-26T02:34:20.593Z,21.96
2019-06-26T02:35:20.595Z,21.86
2019-06-26T02:36:20.597Z,21.88
2019-06-26T02:37:20.601Z,21.91
2019-06-26T02:38:20.613Z,21.90
2019-06-26T02:39:20.610Z,21.79
2019-06-26T02:40:20.613Z,21.91
2019-06-26T02:41:20.615Z,21.86
2019-06-26T02:42:20.620Z,21.83
2019-06-26T02:43:20.625Z,21.84
2019-06-26T02:44:20.623Z,21.82
2019-06-26T02:45:20.629Z,21.91
2019-06-26T02:46:20.632Z,21.98
2019-06-26T02:47:21.062Z,21.91
2019-06-26T02:48:20.638Z,21.99
2019-06-26T02:49:20.642Z,21.98
2019-06-26T02:50:20.647Z,21.92
2019-06-26T02:51:20.650Z,21.99
2019-06-26T02:52:20.657Z,21.99
2019-06-26T02:53:20.657Z,22.06
2019-06-26T02:54:20.658Z,22.07
2019-06-26T02:55:20.662Z,22.14
2019-06-26T02:56:20.671Z,22.09
2019-06-26T02:57:20.661Z,22.18
2019-06-26T02:58:20.668Z,22.20
2019-06-26T02:59:20.681Z,22.27
2019-06-26T03:00:20.680Z,22.24
2019-06-26T03:01:20.685Z,22.20
2019-06-26T03:02:20.686Z,22.14
2019-06-26T03:03:20.693Z,22.20
2019-06-26T03:04:20.700Z,22.20
2019-06-26T03:05:20.695Z,22.28
2019-06-26T03:06:20.698Z,22.21
2019-06-26T03:07:20.700Z,22.25
2019-06-26T03:08:20.717Z,22.14
2019-06-26T03:09:20.710Z,22.17
2019-06-26T03:10:20.712Z,22.20
2019-06-26T03:11:20.716Z,22.22
2019-06-26T03:12:20.716Z,22.27
2019-06-26T03:13:20.724Z,22.18
2019-06-26T03:14:20.735Z,22.28
2019-06-26T03:15:20.729Z,22.21
2019-06-26T03:16:20.730Z,22.17
2019-06-26T03:17:20.732Z,22.18
2019-06-26T03:18:20.740Z,22.30
2019-06-26T03:19:20.741Z,22.18
2019-06-26T03:20:20.744Z,22.33
2019-06-26T03:21:20.751Z,22.20
2019-06-26T03:22:20.755Z,22.18
2019-06-26T03:23:20.755Z,22.20
2019-06-26T03:24:20.755Z,22.30
2019-06-26T03:25:20.771Z,22.30
2019-06-26T03:26:20.763Z,22.36
2019-06-26T03:27:20.763Z,22.25
2019-06-26T03:28:20.771Z,22.24
2019-06-26T03:29:20.771Z,22.36
2019-06-26T03:30:20.781Z,22.35
2019-06-26T03:31:20.786Z,22.35
2019-06-26T03:32:20.784Z,22.30
2019-06-26T03:33:20.787Z,22.21
2019-06-26T03:34:20.787Z,22.27
2019-06-26T03:35:20.794Z,22.20
2019-06-26T03:36:20.799Z,22.33
2019-06-26T03:37:20.796Z,22.22
2019-06-26T03:38:20.799Z,22.24
2019-06-26T03:39:20.814Z,22.20
2019-06-26T03:40:20.806Z,22.35
2019-06-26T03:41:20.810Z,22.27
2019-06-26T03:42:20.816Z,22.31
2019-06-26T03:43:20.820Z,22.33
2019-06-26T03:44:20.829Z,22.30
2019-06-26T03:45:25.926Z,22.43
2019-06-26T03:46:20.836Z,22.39
2019-06-26T03:47:20.837Z,22.33
2019-06-26T03:48:20.836Z,22.37
2019-06-26T03:49:20.837Z,22.37
2019-06-26T03:50:20.850Z,22.40
2019-06-26T03:51:20.887Z,22.42
2019-06-26T03:52:20.853Z,22.52
2019-06-26T03:53:20.858Z,22.46
2019-06-26T03:54:20.857Z,22.47
2019-06-26T03:55:20.862Z,22.54
2019-06-26T03:56:20.863Z,22.52
2019-06-26T03:57:20.866Z,22.54
2019-06-26T03:58:20.872Z,22.57
2019-06-26T03:59:20.879Z,22.57
2019-06-26T04:00:20.880Z,22.55
2019-06-26T04:01:20.882Z,22.49
2019-06-26T04:02:20.887Z,22.55
2019-06-26T04:03:20.883Z,22.58
2019-06-26T04:04:20.887Z,22.62
2019-06-26T04:05:20.919Z,22.62
2019-06-26T04:06:20.893Z,22.64
2019-06-26T04:07:20.897Z,22.82
2019-06-26T04:08:20.901Z,22.73
2019-06-26T04:09:20.906Z,22.72
2019-06-26T04:10:20.914Z,22.70
2019-06-26T04:11:20.916Z,22.72
2019-06-26T04:12:20.920Z,22.70
2019-06-26T04:13:20.917Z,22.75
2019-06-26T04:14:20.922Z,22.75
2019-06-26T04:15:20.926Z,22.77
2019-06-26T04:16:20.940Z,22.83
2019-06-26T04:17:20.934Z,22.73
2019-06-26T04:18:21.048Z,22.85
2019-06-26T04:19:20.940Z,22.83
2019-06-26T04:20:20.945Z,22.91
2019-06-26T04:21:20.976Z,22.83
2019-06-26T04:22:20.960Z,22.97
2019-06-26T04:23:20.969Z,23.00
2019-06-26T04:24:20.953Z,23.10
2019-06-26T04:25:20.955Z,23.07
2019-06-26T04:26:20.961Z,23.13
2019-06-26T04:27:20.964Z,23.20
2019-06-26T04:28:20.985Z,23.19
2019-06-26T04:29:20.973Z,23.12
2019-06-26T04:30:20.996Z,23.19
2019-06-26T04:31:20.988Z,23.25
2019-06-26T04:32:20.988Z,23.32
2019-06-26T04:33:20.985Z,23.32
2019-06-26T04:34:20.992Z,23.39
2019-06-26T04:35:21.132Z,23.40
2019-06-26T04:36:20.994Z,23.40
2019-06-26T04:37:21.000Z,23.42
2019-06-26T04:38:21.004Z,23.42
2019-06-26T04:39:21.007Z,23.40
2019-06-26T04:40:21.009Z,23.53
2019-06-26T04:41:21.013Z,23.54
2019-06-26T04:42:21.028Z,23.47
2019-06-26T04:43:21.022Z,23.60
2019-06-26T04:44:21.027Z,23.53
2019-06-26T04:45:21.028Z,23.58
2019-06-26T04:46:21.036Z,23.63
2019-06-26T04:47:21.038Z,23.65
2019-06-26T04:48:21.046Z,23.76
2019-06-26T04:49:21.045Z,23.73
2019-06-26T04:50:21.054Z,23.80
2019-06-26T04:51:21.053Z,23.72
2019-06-26T04:52:21.057Z,23.83
2019-06-26T04:53:21.061Z,23.85
2019-06-26T04:54:21.064Z,23.79
2019-06-26T04:55:21.068Z,23.88
2019-06-26T04:56:21.074Z,23.87
2019-06-26T04:57:21.073Z,23.88
2019-06-26T04:58:21.078Z,23.91
2019-06-26T04:59:21.080Z,23.98
2019-06-26T05:00:22.015Z,23.97
2019-06-26T05:01:21.101Z,24.03
2019-06-26T05:02:21.092Z,24.00
2019-06-26T05:03:21.095Z,24.10
2019-06-26T05:04:21.107Z,24.12
2019-06-26T05:05:21.101Z,24.15
2019-06-26T05:06:21.128Z,24.09
2019-06-26T05:07:21.112Z,24.09
2019-06-26T05:08:21.116Z,24.13
2019-06-26T05:09:21.249Z,24.12
2019-06-26T05:10:21.123Z,24.15
2019-06-26T05:11:21.126Z,24.24
2019-06-26T05:12:21.128Z,24.25
2019-06-26T05:13:21.132Z,24.27
2019-06-26T05:14:21.143Z,24.31
2019-06-26T05:15:21.155Z,24.32
2019-06-26T05:16:21.145Z,24.40
2019-06-26T05:17:21.150Z,24.49
2019-06-26T05:18:21.154Z,24.47
2019-06-26T05:19:21.169Z,24.50
2019-06-26T05:20:21.167Z,24.49
2019-06-26T05:21:21.165Z,24.60
2019-06-26T05:22:21.171Z,24.64
2019-06-26T05:23:21.173Z,24.64
2019-06-26T05:24:21.178Z,24.62
2019-06-26T05:25:21.186Z,24.67
2019-06-26T05:26:21.187Z,24.69
2019-06-26T05:27:21.188Z,24.76
2019-06-26T05:28:21.196Z,24.83
2019-06-26T05:29:21.197Z,24.87
2019-06-26T05:30:21.205Z,24.83
2019-06-26T05:31:21.208Z,24.88
2019-06-26T05:32:21.213Z,24.87
2019-06-26T05:33:21.212Z,24.90
2019-06-26T05:34:21.217Z,25.00
2019-06-26T05:35:21.221Z,24.93
2019-06-26T05:36:21.225Z,25.00
2019-06-26T05:37:21.229Z,25.10
2019-06-26T05:38:21.235Z,25.10
2019-06-26T05:39:21.242Z,25.08
2019-06-26T05:40:21.252Z,25.14
2019-06-26T05:41:21.250Z,25.23
2019-06-26T05:42:21.255Z,25.24
2019-06-26T05:43:21.266Z,25.30
2019-06-26T05:44:21.262Z,25.33
2019-06-26T05:45:21.266Z,25.38
2019-06-26T05:46:30.715Z,25.46
2019-06-26T05:47:22.091Z,25.51
2019-06-26T05:48:21.285Z,25.55
2019-06-26T05:49:21.286Z,25.60
2019-06-26T05:50:21.287Z,25.70
2019-06-26T05:51:21.297Z,25.67
2019-06-26T05:52:21.306Z,25.73
2019-06-26T05:53:21.305Z,25.79
2019-06-26T05:54:21.306Z,25.85
2019-06-26T05:55:21.309Z,25.76
2019-06-26T05:56:21.335Z,25.80
2019-06-26T05:57:21.326Z,25.83
2019-06-26T05:58:21.323Z,25.83
2019-06-26T05:59:21.329Z,25.91
2019-06-26T06:00:21.334Z,25.98
2019-06-26T06:01:21.410Z,25.88
2019-06-26T06:02:21.349Z,26.05
2019-06-26T06:03:21.408Z,26.06
2019-06-26T06:04:21.355Z,26.09
2019-06-26T06:05:21.397Z,26.13
2019-06-26T06:06:21.360Z,26.18
2019-06-26T06:07:21.367Z,26.25
2019-06-26T06:08:21.370Z,26.21
2019-06-26T06:09:21.376Z,26.29
2019-06-26T06:10:21.380Z,26.29
2019-06-26T06:11:21.397Z,26.37
2019-06-26T06:12:21.390Z,26.39
2019-06-26T06:13:21.394Z,26.39
2019-06-26T06:14:21.400Z,26.43
2019-06-26T06:15:21.403Z,26.44
2019-06-26T06:16:21.409Z,26.47
2019-06-26T06:17:21.417Z,26.50
2019-06-26T06:18:21.424Z,26.57
2019-06-26T06:19:21.428Z,26.62
2019-06-26T06:20:21.435Z,26.65
2019-06-26T06:21:21.433Z,26.81
2019-06-26T06:22:21.441Z,26.87
2019-06-26T06:23:21.448Z,26.91
2019-06-26T06:24:21.447Z,26.89
2019-06-26T06:25:21.460Z,26.92
2019-06-26T06:26:21.465Z,26.99
2019-06-26T06:27:21.463Z,27.07
2019-06-26T06:28:21.500Z,27.13
2019-06-26T06:29:21.478Z,27.09
2019-06-26T06:30:21.481Z,27.13
2019-06-26T06:31:21.488Z,27.10
2019-06-26T06:32:21.495Z,27.18
2019-06-26T06:33:21.508Z,27.24
2019-06-26T06:34:21.505Z,27.28
2019-06-26T06:35:21.509Z,27.40
2019-06-26T06:36:21.515Z,27.34
2019-06-26T06:37:21.522Z,27.44
2019-06-26T06:38:21.526Z,27.37
2019-06-26T06:39:21.530Z,27.46
2019-06-26T06:40:21.539Z,27.55
2019-06-26T06:41:21.541Z,27.59
2019-06-26T06:42:21.551Z,27.60
2019-06-26T06:43:21.550Z,27.66
2019-06-26T06:44:21.559Z,27.65
2019-06-26T06:45:21.563Z,27.78
2019-06-26T06:46:21.578Z,27.82
2019-06-26T06:47:21.582Z,27.82
2019-06-26T06:48:21.582Z,27.77
2019-06-26T06:49:21.587Z,27.87
2019-06-26T06:50:21.593Z,27.94
2019-06-26T06:51:21.605Z,28.06
2019-06-26T06:52:21.611Z,28.04
2019-06-26T06:53:21.616Z,28.18
2019-06-26T06:54:21.627Z,28.14
2019-06-26T06:55:21.633Z,28.18
2019-06-26T06:56:21.634Z,28.33
2019-06-26T06:57:21.642Z,28.30
2019-06-26T06:58:21.645Z,28.48
2019-06-26T06:59:21.648Z,28.48
2019-06-26T07:00:21.656Z,28.51
2019-06-26T07:01:21.663Z,28.55
2019-06-26T07:02:21.668Z,28.61
2019-06-26T07:03:21.675Z,28.68
2019-06-26T07:04:21.674Z,28.61
2019-06-26T07:05:21.691Z,28.78
2019-06-26T07:06:21.694Z,28.80
2019-06-26T07:07:21.701Z,28.83
2019-06-26T07:08:21.705Z,28.90
2019-06-26T07:09:21.717Z,28.93
2019-06-26T07:10:21.720Z,28.96
2019-06-26T07:11:21.727Z,28.98
2019-06-26T07:12:21.734Z,29.09
2019-06-26T07:13:21.741Z,29.12
2019-06-26T07:14:21.743Z,29.24
2019-06-26T07:15:21.765Z,29.27
2019-06-26T07:16:21.755Z,29.24
2019-06-26T07:17:21.764Z,29.31
2019-06-26T07:18:21.766Z,29.36
2019-06-26T07:19:21.774Z,29.36
2019-06-26T07:20:21.785Z,29.46
2019-06-26T07:21:21.794Z,29.43
2019-06-26T07:22:21.797Z,29.49
2019-06-26T07:23:21.810Z,29.65
2019-06-26T07:24:21.814Z,29.74
2019-06-26T07:25:21.826Z,29.79
2019-06-26T07:26:21.831Z,29.80
2019-06-26T07:27:21.836Z,29.87
2019-06-26T07:28:21.915Z,29.98
2019-06-26T07:29:21.851Z,29.87
2019-06-26T07:30:22.054Z,30.07
2019-06-26T07:31:21.868Z,30.17
2019-06-26T07:32:21.870Z,30.10
2019-06-26T07:33:21.877Z,30.15
2019-06-26T07:34:21.882Z,30.19
2019-06-26T07:35:21.891Z,30.26
2019-06-26T07:36:21.901Z,30.31
2019-06-26T07:37:21.906Z,30.38
2019-06-26T07:38:21.948Z,30.60
2019-06-26T07:39:21.927Z,30.57
2019-06-26T07:40:21.930Z,30.67
2019-06-26T07:41:21.937Z,30.65
2019-06-26T07:42:21.946Z,30.77
2019-06-26T07:43:21.954Z,30.79
2019-06-26T07:44:21.963Z,30.86
2019-06-26T07:45:24.158Z,30.82
2019-06-26T07:46:21.977Z,30.89
2019-06-26T07:47:25.179Z,30.95
2019-06-26T07:48:22.038Z,31.09
2019-06-26T07:49:22.004Z,31.09
2019-06-26T07:50:22.010Z,31.17
2019-06-26T07:51:22.021Z,31.19
2019-06-26T07:52:22.020Z,31.31
2019-06-26T07:53:22.032Z,31.31
2019-06-26T07:54:22.042Z,31.35
2019-06-26T07:55:22.050Z,31.35
2019-06-26T07:56:22.055Z,31.36
2019-06-26T07:57:22.065Z,31.36
2019-06-26T07:58:22.100Z,31.43
2019-06-26T07:59:22.088Z,31.58
2019-06-26T08:00:22.089Z,31.62
2019-06-26T08:01:22.104Z,31.65
2019-06-26T08:02:22.108Z,31.72
2019-06-26T08:03:22.152Z,31.80
2019-06-26T08:04:22.186Z,31.86
2019-06-26T08:05:22.133Z,31.81
2019-06-26T08:06:22.141Z,31.85
2019-06-26T08:07:22.150Z,31.91
2019-06-26T08:08:22.160Z,31.96
2019-06-26T08:09:22.226Z,32.06
2019-06-26T08:10:22.174Z,32.08
2019-06-26T08:11:22.185Z,32.03
2019-06-26T08:12:22.202Z,32.08
2019-06-26T08:13:22.200Z,32.13
2019-06-26T08:14:22.211Z,32.25
2019-06-26T08:15:22.218Z,32.29
2019-06-26T08:16:22.231Z,32.38
2019-06-26T08:17:22.237Z,32.44
2019-06-26T08:18:22.253Z,32.32
2019-06-26T08:19:22.254Z,32.40
2019-06-26T08:20:22.264Z,32.47
2019-06-26T08:21:22.279Z,32.56
2019-06-26T08:22:22.297Z,32.60
2019-06-26T08:23:22.293Z,32.62
2019-06-26T08:24:22.310Z,32.65
2019-06-26T08:25:22.312Z,32.67
2019-06-26T08:26:22.322Z,32.65
2019-06-26T08:27:22.333Z,32.74
2019-06-26T08:28:22.340Z,32.81
2019-06-26T08:29:22.349Z,32.92
2019-06-26T08:30:22.369Z,32.93
2019-06-26T08:31:22.372Z,33.06
2019-06-26T08:32:25.842Z,33.07
2019-06-26T08:33:22.388Z,33.12
2019-06-26T08:34:22.401Z,33.19
2019-06-26T08:35:22.412Z,33.23
2019-06-26T08:36:22.431Z,33.29
2019-06-26T08:37:22.454Z,33.34
2019-06-26T08:38:22.440Z,33.45
2019-06-26T08:39:22.451Z,33.51
2019-06-26T08:40:22.462Z,33.57
2019-06-26T08:41:22.466Z,33.69
2019-06-26T08:42:22.477Z,33.65
2019-06-26T08:43:22.492Z,33.65
2019-06-26T08:44:22.589Z,33.75
2019-06-26T08:45:22.508Z,33.84
2019-06-26T08:46:22.520Z,33.88
2019-06-26T08:47:22.601Z,33.91
2019-06-26T08:48:38.327Z,33.88
2019-06-26T08:49:26.189Z,33.87
2019-06-26T08:50:22.563Z,33.91
2019-06-26T08:51:22.567Z,33.90
2019-06-26T08:52:22.579Z,34.03
2019-06-26T08:53:22.591Z,33.88
2019-06-26T08:54:22.608Z,34.00
2019-06-26T08:55:22.629Z,34.03
2019-06-26T08:56:22.630Z,34.03
2019-06-26T08:57:22.632Z,34.17
2019-06-26T08:58:22.645Z,34.34
2019-06-26T08:59:22.651Z,34.44
2019-06-26T09:00:22.666Z,34.50
2019-06-26T09:01:22.689Z,34.52
2019-06-26T09:02:22.691Z,34.69
2019-06-26T09:03:22.705Z,34.66
2019-06-26T09:04:22.704Z,34.73
2019-06-26T09:05:22.715Z,34.85
2019-06-26T09:06:22.727Z,34.81
2019-06-26T09:07:22.751Z,34.96
2019-06-26T09:08:22.912Z,34.78
2019-06-26T09:09:22.761Z,34.85
2019-06-26T09:10:22.837Z,34.96
2019-06-26T09:11:22.783Z,34.91
2019-06-26T09:12:22.791Z,35.02
2019-06-26T09:13:22.805Z,35.09
2019-06-26T09:14:22.815Z,35.15
2019-06-26T09:15:22.825Z,35.10
2019-06-26T09:16:22.841Z,35.16
2019-06-26T09:17:22.850Z,35.19
2019-06-26T09:18:34.902Z,35.09
2019-06-26T09:19:22.874Z,35.19
2019-06-26T09:20:22.884Z,35.21
2019-06-26T09:21:22.899Z,35.36
2019-06-26T09:22:22.906Z,35.40
2019-06-26T09:23:22.922Z,35.40
2019-06-26T09:24:22.930Z,35.36
2019-06-26T09:25:22.946Z,35.44
2019-06-26T09:26:22.947Z,35.47
2019-06-26T09:27:22.961Z,35.50
2019-06-26T09:28:22.975Z,35.50
2019-06-26T09:29:24.113Z,35.43
2019-06-26T09:30:23.003Z,35.45
2019-06-26T09:31:23.011Z,35.50
2019-06-26T09:32:23.023Z,35.58
2019-06-26T09:33:23.031Z,35.71
2019-06-26T09:34:23.048Z,35.71
2019-06-26T09:35:23.057Z,35.77
2019-06-26T09:36:23.079Z,35.75
2019-06-26T09:37:23.084Z,35.85
2019-06-26T09:38:23.093Z,35.82
2019-06-26T09:39:23.115Z,35.81
2019-06-26T09:40:23.118Z,35.87
2019-06-26T09:41:23.128Z,35.96
2019-06-26T09:42:23.171Z,36.03
2019-06-26T09:43:23.156Z,35.96
2019-06-26T09:44:23.163Z,35.89
2019-06-26T09:45:23.176Z,35.97
2019-06-26T09:46:23.187Z,35.92
2019-06-26T09:47:23.199Z,35.90
2019-06-26T09:48:23.211Z,35.93
2019-06-26T09:49:23.227Z,35.92
2019-06-26T09:50:23.240Z,35.93
2019-06-26T09:51:23.255Z,35.96
2019-06-26T09:52:23.283Z,35.89
2019-06-26T09:53:23.276Z,35.97
2019-06-26T09:54:23.283Z,35.99
2019-06-26T09:55:23.301Z,36.05
2019-06-26T09:56:23.317Z,36.08
2019-06-26T09:57:23.324Z,36.12
2019-06-26T09:58:23.336Z,36.19
2019-06-26T09:59:23.355Z,36.15
2019-06-26T10:00:23.357Z,36.22
2019-06-26T10:01:23.372Z,36.22
2019-06-26T10:02:23.385Z,36.22
2019-06-26T10:03:23.395Z,36.35
2019-06-26T10:04:23.409Z,36.31
2019-06-26T10:05:23.431Z,36.20
2019-06-26T10:06:23.430Z,36.29
2019-06-26T10:07:23.446Z,36.38
2019-06-26T10:08:23.462Z,36.43
2019-06-26T10:09:23.474Z,36.49
2019-06-26T10:10:23.483Z,36.57
2019-06-26T10:11:23.497Z,36.62
2019-06-26T10:12:23.506Z,36.66
2019-06-26T10:13:23.520Z,36.76
2019-06-26T10:14:23.536Z,36.81
2019-06-26T10:15:23.549Z,36.78
2019-06-26T10:16:23.559Z,36.83
2019-06-26T10:17:23.574Z,36.85
2019-06-26T10:18:23.585Z,36.95
2019-06-26T10:19:23.601Z,37.06
2019-06-26T10:20:23.618Z,37.10
2019-06-26T10:21:23.827Z,37.12
2019-06-26T10:22:23.641Z,37.12
2019-06-26T10:23:23.651Z,37.07
2019-06-26T10:24:23.766Z,37.15
2019-06-26T10:25:23.682Z,37.10
2019-06-26T10:26:23.692Z,37.09
2019-06-26T10:27:23.702Z,37.07
2019-06-26T10:28:23.724Z,37.47
2019-06-26T10:29:23.730Z,38.35
2019-06-26T10:30:23.746Z,39.23
2019-06-26T10:31:23.755Z,40.12
2019-06-26T10:32:23.770Z,40.89
2019-06-26T10:33:23.970Z,41.71
2019-06-26T10:34:23.797Z,42.09
2019-06-26T10:35:23.811Z,42.68
2019-06-26T10:36:24.766Z,42.96
2019-06-26T10:37:23.845Z,43.31
2019-06-26T10:38:23.858Z,43.68
2019-06-26T10:39:23.872Z,44.14
2019-06-26T10:40:23.893Z,44.40
2019-06-26T10:41:23.913Z,44.51
2019-06-26T10:42:23.928Z,44.75
2019-06-26T10:43:23.944Z,45.21
2019-06-26T10:44:23.969Z,45.55
2019-06-26T10:45:23.980Z,46.03
2019-06-26T10:46:24.001Z,46.40
2019-06-26T10:47:24.016Z,46.66
2019-06-26T10:48:24.047Z,46.62
2019-06-26T10:49:27.423Z,46.40
2019-06-26T10:50:24.086Z,46.24
2019-06-26T10:51:24.096Z,45.62
2019-06-26T10:52:24.119Z,45.42
2019-06-26T10:53:24.141Z,45.60
2019-06-26T10:54:24.164Z,45.95
2019-06-26T10:55:24.180Z,46.43
2019-06-26T10:56:24.202Z,46.83
2019-06-26T10:57:24.228Z,47.06
2019-06-26T10:58:24.252Z,47.44
2019-06-26T10:59:24.280Z,47.87
2019-06-26T11:00:24.296Z,48.16
2019-06-26T11:01:24.326Z,48.42
2019-06-26T11:02:24.350Z,48.11
2019-06-26T11:03:24.365Z,47.91
2019-06-26T11:04:24.390Z,47.75
2019-06-26T11:05:24.461Z,47.78
2019-06-26T11:06:24.440Z,47.79
2019-06-26T11:07:24.471Z,47.90
2019-06-26T11:08:24.492Z,48.23
2019-06-26T11:09:24.520Z,47.97
2019-06-26T11:10:24.539Z,47.41
2019-06-26T11:11:24.574Z,46.83
2019-06-26T11:12:24.593Z,46.01
2019-06-26T11:13:24.619Z,46.04
2019-06-26T11:14:24.651Z,46.43
2019-06-26T11:15:24.672Z,46.35
2019-06-26T11:16:24.695Z,46.01
2019-06-26T11:17:24.728Z,46.19
2019-06-26T11:18:24.747Z,46.31
2019-06-26T11:19:24.772Z,45.98
2019-06-26T11:20:24.798Z,45.32
2019-06-26T11:21:24.829Z,45.10
2019-06-26T11:22:24.870Z,45.40
2019-06-26T11:23:24.878Z,45.89
2019-06-26T11:24:24.906Z,45.99
2019-06-26T11:25:24.928Z,45.91
2019-06-26T11:26:24.962Z,45.84
2019-06-26T11:27:24.992Z,46.21
2019-06-26T11:28:25.006Z,46.64
2019-06-26T11:29:25.036Z,46.83
2019-06-26T11:30:25.062Z,47.09
2019-06-26T11:31:25.091Z,47.33
2019-06-26T11:32:25.129Z,47.91
2019-06-26T11:33:25.173Z,48.28
2019-06-26T11:34:25.165Z,47.44
2019-06-26T11:35:25.195Z,46.53
2019-06-26T11:36:25.225Z,45.53
2019-06-26T11:37:25.248Z,45.45
2019-06-26T11:38:25.269Z,45.26
2019-06-26T11:39:25.303Z,45.64
2019-06-26T11:40:25.323Z,46.09
2019-06-26T11:41:25.363Z,46.64
2019-06-26T11:42:25.381Z,46.42
2019-06-26T11:43:25.401Z,45.85
2019-06-26T11:44:25.429Z,45.42
2019-06-26T11:45:25.461Z,44.75
2019-06-26T11:46:25.481Z,44.44
2019-06-26T11:47:25.515Z,44.97
2019-06-26T11:48:25.534Z,45.24
2019-06-26T11:49:25.571Z,45.53
2019-06-26T11:50:25.586Z,45.98
2019-06-26T11:51:25.611Z,46.50
2019-06-26T11:52:25.647Z,46.42
2019-06-26T11:53:25.673Z,46.64
2019-06-26T11:54:25.706Z,46.83
2019-06-26T11:55:25.717Z,46.95
2019-06-26T11:56:25.744Z,46.28
2019-06-26T11:57:25.772Z,46.35
2019-06-26T11:58:25.805Z,46.45
2019-06-26T11:59:25.828Z,46.77
2019-06-26T12:00:25.858Z,47.33
2019-06-26T12:01:25.891Z,47.60
2019-06-26T12:02:25.924Z,47.53
2019-06-26T12:03:25.938Z,47.60
2019-06-26T12:04:25.990Z,47.90
2019-06-26T12:05:25.996Z,48.01
2019-06-26T12:06:26.029Z,48.13
2019-06-26T12:07:26.057Z,47.92
2019-06-26T12:08:26.077Z,47.70
2019-06-26T12:09:26.103Z,47.38
2019-06-26T12:10:26.134Z,46.74
2019-06-26T12:11:26.170Z,46.39
2019-06-26T12:12:26.192Z,45.80
2019-06-26T12:13:26.216Z,45.26
2019-06-26T12:14:26.249Z,44.39
2019-06-26T12:15:26.276Z,44.73
2019-06-26T12:16:26.298Z,45.04
2019-06-26T12:17:26.328Z,45.53
2019-06-26T12:18:26.416Z,45.89
2019-06-26T12:19:26.379Z,45.70
2019-06-26T12:20:26.517Z,45.04
2019-06-26T12:21:26.435Z,44.53
2019-06-26T12:22:26.460Z,44.21
2019-06-26T12:23:26.486Z,43.83
2019-06-26T12:24:26.818Z,43.86
2019-06-26T12:25:26.539Z,43.11
2019-06-26T12:26:26.559Z,42.62
2019-06-26T12:27:26.591Z,42.20
2019-06-26T12:28:26.612Z,42.06
2019-06-26T12:29:26.641Z,41.94
2019-06-26T12:30:26.659Z,42.02
2019-06-26T12:31:26.680Z,42.02
2019-06-26T12:32:26.706Z,42.25
2019-06-26T12:33:26.739Z,42.31
2019-06-26T12:34:26.754Z,42.09
2019-06-26T12:35:26.785Z,42.23
2019-06-26T12:36:26.809Z,42.12
2019-06-26T12:37:36.937Z,42.13
2019-06-26T12:38:26.845Z,41.94
2019-06-26T12:39:26.868Z,41.93
2019-06-26T12:40:30.773Z,42.11
2019-06-26T12:41:26.916Z,41.86
2019-06-26T12:42:26.933Z,41.70
2019-06-26T12:43:26.958Z,41.48
2019-06-26T12:44:26.979Z,41.26
2019-06-26T12:45:26.997Z,41.17
2019-06-26T12:46:27.020Z,41.28
2019-06-26T12:47:27.042Z,41.49
2019-06-26T12:48:27.066Z,41.73
2019-06-26T12:49:27.082Z,41.90
2019-06-26T12:50:35.467Z,41.89
2019-06-26T12:51:27.315Z,41.84
2019-06-26T12:52:27.150Z,41.84